createdAt,value
2016-11-07T00:00:09.678Z,19.21
2016-11-07T00:01:13.116Z,19.22
2016-11-07T00:02:10.116Z,19.22
2016-11-07T00:03:12.998Z,19.21
2016-11-07T00:04:12.396Z,19.21
2016-11-07T00:05:13.110Z,19.22
2016-11-07T00:06:13.189Z,19.21
2016-11-07T00:07:12.684Z,19.21
2016-11-07T00:08:12.645Z,19.21
2016-11-07T00:09:12.866Z,19.21
2016-11-07T00:10:09.347Z,19.20
2016-11-07T00:11:13.382Z,19.27
2016-11-07T00:12:12.679Z,19.21
2016-11-07T00:13:12.488Z,19.21
2016-11-07T00:14:12.794Z,19.20
2016-11-07T00:15:12.340Z,19.21
2016-11-07T00:16:13.467Z,19.21
2016-11-07T00:17:11.056Z,19.20
2016-11-07T00:18:10.428Z,19.21
2016-11-07T00:19:14.127Z,19.20
2016-11-07T00:20:13.342Z,19.21
2016-11-07T00:21:12.810Z,19.27
2016-11-07T00:22:11.332Z,19.19
2016-11-07T00:23:11.236Z,19.19
2016-11-07T00:24:12.142Z,19.20
2016-11-07T00:25:16.469Z,19.20
2016-11-07T00:26:12.331Z,19.72
2016-11-07T00:27:12.840Z,19.78
2016-11-07T00:28:12.983Z,19.79
2016-11-07T00:29:12.792Z,19.82
2016-11-07T00:30:13.591Z,19.29
2016-11-07T00:31:12.418Z,19.24
2016-11-07T00:32:12.919Z,19.22
2016-11-07T00:33:13.410Z,19.21
2016-11-07T00:34:13.835Z,19.20
2016-11-07T00:35:11.804Z,19.20
2016-11-07T00:36:13.223Z,19.20
2016-11-07T00:37:12.795Z,19.20
2016-11-07T00:38:11.735Z,19.20
2016-11-07T00:39:12.520Z,19.20
2016-11-07T00:40:13.217Z,19.19
2016-11-07T00:41:10.804Z,19.19
2016-11-07T00:42:11.877Z,19.19
2016-11-07T00:43:09.732Z,19.18
2016-11-07T00:44:12.339Z,19.22
2016-11-07T00:45:12.260Z,19.19
2016-11-07T00:46:12.369Z,19.20
2016-11-07T00:47:12.904Z,19.20
2016-11-07T00:48:09.887Z,19.20
2016-11-07T00:49:12.540Z,19.22
2016-11-07T00:50:13.196Z,19.19
2016-11-07T00:51:12.773Z,19.27
2016-11-07T00:52:12.346Z,19.19
2016-11-07T00:53:12.994Z,19.19
2016-11-07T00:54:18.768Z,19.20
2016-11-07T00:55:13.499Z,19.19
2016-11-07T00:56:14.446Z,19.18
2016-11-07T00:57:14.298Z,19.18
2016-11-07T00:58:12.250Z,19.19
2016-11-07T00:59:12.795Z,19.19
2016-11-07T01:00:14.247Z,19.19
2016-11-07T01:01:13.090Z,19.20
2016-11-07T01:02:12.326Z,19.20
2016-11-07T01:03:14.010Z,19.21
2016-11-07T01:04:09.375Z,19.19
2016-11-07T01:05:13.149Z,19.19
2016-11-07T01:06:12.790Z,19.19
2016-11-07T01:07:12.624Z,19.19
2016-11-07T01:08:12.573Z,19.19
2016-11-07T01:09:12.773Z,19.23
2016-11-07T01:10:14.327Z,19.19
2016-11-07T01:11:14.449Z,19.19
2016-11-07T01:12:13.675Z,19.20
2016-11-07T01:13:10.706Z,19.19
2016-11-07T01:14:12.428Z,19.19
2016-11-07T01:15:13.496Z,19.20
2016-11-07T01:16:13.047Z,19.19
2016-11-07T01:17:12.954Z,19.23
2016-11-07T01:18:12.814Z,19.19
2016-11-07T01:19:12.189Z,19.19
2016-11-07T01:20:15.842Z,19.19
2016-11-07T01:21:12.113Z,19.20
2016-11-07T01:22:12.863Z,19.19
2016-11-07T01:23:12.100Z,19.19
2016-11-07T01:24:10.696Z,19.19
2016-11-07T01:25:13.159Z,19.19
2016-11-07T01:26:15.039Z,19.19
2016-11-07T01:27:12.586Z,19.19
2016-11-07T01:28:13.794Z,19.25
2016-11-07T01:29:12.189Z,19.19
2016-11-07T01:30:13.827Z,19.19
2016-11-07T01:31:14.687Z,19.19
2016-11-07T01:32:13.304Z,19.19
2016-11-07T01:33:12.027Z,19.20
2016-11-07T01:34:11.708Z,19.18
2016-11-07T01:35:13.888Z,19.22
2016-11-07T01:36:12.616Z,19.70
2016-11-07T01:37:11.858Z,19.42
2016-11-07T01:38:12.960Z,19.25
2016-11-07T01:39:13.083Z,19.22
2016-11-07T01:40:13.569Z,19.20
2016-11-07T01:41:13.192Z,19.19
2016-11-07T01:42:12.825Z,19.18
2016-11-07T01:43:12.674Z,19.18
2016-11-07T01:44:12.516Z,19.21
2016-11-07T01:45:12.713Z,19.19
2016-11-07T01:46:13.534Z,19.19
2016-11-07T01:47:12.777Z,19.71
2016-11-07T01:48:12.481Z,19.27
2016-11-07T01:49:13.237Z,19.20
2016-11-07T01:50:14.868Z,19.20
2016-11-07T01:51:12.326Z,19.21
2016-11-07T01:52:12.754Z,19.19
2016-11-07T01:53:14.345Z,19.19
2016-11-07T01:54:14.305Z,19.18
2016-11-07T01:55:12.911Z,19.17
2016-11-07T01:56:12.452Z,19.71
2016-11-07T01:57:13.849Z,19.75
2016-11-07T01:58:12.759Z,19.78
2016-11-07T01:59:15.367Z,19.39
2016-11-07T02:00:13.188Z,19.30
2016-11-07T02:01:13.286Z,19.21
2016-11-07T02:02:10.150Z,19.19
2016-11-07T02:03:13.161Z,19.22
2016-11-07T02:04:13.050Z,19.18
2016-11-07T02:05:13.701Z,19.17
2016-11-07T02:06:13.781Z,19.19
2016-11-07T02:07:13.857Z,19.18
2016-11-07T02:08:13.777Z,19.17
2016-11-07T02:09:14.039Z,19.17
2016-11-07T02:10:13.590Z,19.17
2016-11-07T02:11:12.286Z,19.19
2016-11-07T02:12:13.153Z,19.17
2016-11-07T02:13:12.639Z,19.19
2016-11-07T02:14:11.869Z,19.17
2016-11-07T02:15:18.341Z,19.20
2016-11-07T02:16:14.843Z,19.16
2016-11-07T02:17:12.968Z,19.17
2016-11-07T02:18:10.661Z,19.16
2016-11-07T02:19:13.746Z,19.16
2016-11-07T02:20:13.764Z,19.17
2016-11-07T02:21:12.032Z,19.16
2016-11-07T02:22:13.673Z,19.20
2016-11-07T02:23:13.169Z,19.70
2016-11-07T02:24:12.269Z,19.77
2016-11-07T02:25:13.216Z,19.54
2016-11-07T02:26:12.398Z,19.25
2016-11-07T02:27:13.149Z,19.23
2016-11-07T02:28:13.737Z,19.19
2016-11-07T02:29:14.328Z,19.18
2016-11-07T02:30:13.902Z,19.18
2016-11-07T02:31:14.379Z,19.17
2016-11-07T02:32:12.968Z,19.17
2016-11-07T02:33:12.065Z,19.16
2016-11-07T02:34:13.943Z,19.17
2016-11-07T02:35:13.527Z,19.16
2016-11-07T02:36:13.618Z,19.16
2016-11-07T02:37:16.474Z,19.15
2016-11-07T02:38:12.530Z,19.16
2016-11-07T02:39:13.951Z,19.15
2016-11-07T02:40:12.850Z,19.16
2016-11-07T02:41:10.829Z,19.16
2016-11-07T02:42:13.021Z,19.69
2016-11-07T02:43:16.460Z,19.75
2016-11-07T02:44:13.551Z,19.76
2016-11-07T02:45:12.378Z,19.78
2016-11-07T02:46:13.202Z,19.80
2016-11-07T02:47:15.609Z,19.79
2016-11-07T02:48:10.925Z,19.79
2016-11-07T02:49:12.342Z,19.28
2016-11-07T02:50:13.462Z,19.20
2016-11-07T02:51:12.723Z,19.19
2016-11-07T02:52:12.946Z,19.18
2016-11-07T02:53:13.248Z,19.17
2016-11-07T02:54:11.138Z,19.16
2016-11-07T02:55:17.885Z,19.16
2016-11-07T02:56:09.232Z,19.14
2016-11-07T02:57:12.223Z,19.16
2016-11-07T02:58:12.385Z,19.15
2016-11-07T02:59:13.138Z,19.15
2016-11-07T03:00:13.215Z,19.15
2016-11-07T03:01:15.237Z,19.14
2016-11-07T03:02:14.706Z,19.15
2016-11-07T03:03:12.986Z,19.15
2016-11-07T03:04:14.452Z,19.14
2016-11-07T03:05:12.576Z,19.14
2016-11-07T03:06:19.286Z,19.15
2016-11-07T03:07:13.553Z,19.15
2016-11-07T03:08:18.160Z,19.14
2016-11-07T03:09:12.461Z,19.15
2016-11-07T03:10:11.571Z,19.13
2016-11-07T03:11:13.189Z,19.67
2016-11-07T03:12:14.682Z,19.72
2016-11-07T03:13:12.130Z,19.75
2016-11-07T03:14:12.955Z,19.76
2016-11-07T03:15:13.802Z,19.42
2016-11-07T03:16:12.189Z,19.24
2016-11-07T03:17:12.942Z,19.19
2016-11-07T03:18:12.792Z,19.18
2016-11-07T03:19:12.535Z,19.16
2016-11-07T03:20:12.664Z,19.16
2016-11-07T03:21:12.893Z,19.15
2016-11-07T03:22:13.816Z,19.15
2016-11-07T03:23:12.373Z,19.14
2016-11-07T03:24:13.812Z,19.15
2016-11-07T03:25:12.659Z,19.14
2016-11-07T03:26:13.027Z,19.13
2016-11-07T03:27:12.590Z,19.14
2016-11-07T03:28:11.590Z,19.15
2016-11-07T03:29:12.105Z,19.14
2016-11-07T03:30:12.615Z,19.13
2016-11-07T03:31:12.471Z,19.12
2016-11-07T03:32:12.564Z,19.13
2016-11-07T03:33:13.364Z,19.13
2016-11-07T03:34:09.667Z,19.12
2016-11-07T03:35:13.308Z,19.13
2016-11-07T03:36:13.132Z,19.14
2016-11-07T03:37:12.063Z,19.13
2016-11-07T03:38:12.133Z,19.13
2016-11-07T03:39:12.154Z,19.13
2016-11-07T03:40:13.048Z,19.15
2016-11-07T03:41:12.643Z,19.17
2016-11-07T03:42:12.154Z,19.13
2016-11-07T03:43:12.796Z,19.14
2016-11-07T03:44:09.463Z,19.12
2016-11-07T03:45:12.622Z,19.13
2016-11-07T03:46:11.844Z,19.13
2016-11-07T03:47:13.158Z,19.14
2016-11-07T03:48:12.850Z,19.13
2016-11-07T03:49:12.451Z,19.13
2016-11-07T03:50:14.092Z,19.13
2016-11-07T03:51:12.883Z,19.12
2016-11-07T03:52:12.044Z,19.13
2016-11-07T03:53:12.548Z,19.13
2016-11-07T03:54:12.187Z,19.13
2016-11-07T03:55:12.601Z,19.12
2016-11-07T03:56:18.844Z,19.12
2016-11-07T03:57:12.867Z,19.16
2016-11-07T03:58:12.481Z,19.12
2016-11-07T03:59:13.690Z,19.12
2016-11-07T04:00:12.950Z,19.12
2016-11-07T04:01:13.064Z,19.15
2016-11-07T04:02:13.153Z,19.12
2016-11-07T04:03:14.035Z,19.12
2016-11-07T04:04:12.589Z,19.12
2016-11-07T04:05:12.602Z,19.15
2016-11-07T04:06:11.724Z,19.12
2016-11-07T04:07:10.946Z,19.11
2016-11-07T04:08:13.555Z,19.13
2016-11-07T04:09:12.668Z,19.12
2016-11-07T04:10:12.204Z,19.12
2016-11-07T04:11:12.213Z,19.12
2016-11-07T04:12:13.632Z,19.12
2016-11-07T04:13:12.660Z,19.13
2016-11-07T04:14:13.487Z,19.12
2016-11-07T04:15:13.063Z,19.11
2016-11-07T04:16:12.263Z,19.13
2016-11-07T04:17:12.897Z,19.13
2016-11-07T04:18:11.974Z,19.12
2016-11-07T04:19:13.545Z,19.11
2016-11-07T04:20:13.646Z,19.12
2016-11-07T04:21:10.595Z,19.11
2016-11-07T04:22:13.880Z,19.30
2016-11-07T04:23:12.386Z,19.17
2016-11-07T04:24:12.361Z,19.15
2016-11-07T04:25:12.908Z,19.14
2016-11-07T04:26:12.559Z,19.12
2016-11-07T04:27:13.802Z,19.12
2016-11-07T04:28:11.921Z,19.12
2016-11-07T04:29:11.007Z,19.12
2016-11-07T04:30:10.843Z,19.64
2016-11-07T04:31:15.021Z,19.71
2016-11-07T04:32:13.369Z,19.73
2016-11-07T04:33:13.005Z,19.75
2016-11-07T04:34:12.732Z,19.76
2016-11-07T04:35:11.830Z,19.74
2016-11-07T04:36:10.950Z,19.22
2016-11-07T04:37:12.533Z,19.70
2016-11-07T04:38:13.159Z,19.73
2016-11-07T04:39:12.648Z,19.46
2016-11-07T04:40:11.735Z,19.21
2016-11-07T04:41:09.367Z,19.15
2016-11-07T04:42:13.567Z,19.14
2016-11-07T04:43:12.170Z,19.13
2016-11-07T04:44:10.944Z,19.11
2016-11-07T04:45:12.801Z,19.11
2016-11-07T04:46:12.664Z,19.11
2016-11-07T04:47:12.312Z,19.15
2016-11-07T04:48:13.033Z,19.11
2016-11-07T04:49:12.764Z,19.12
2016-11-07T04:50:12.119Z,19.12
2016-11-07T04:51:11.221Z,19.11
2016-11-07T04:52:12.752Z,19.11
2016-11-07T04:53:14.849Z,19.11
2016-11-07T04:54:12.711Z,19.11
2016-11-07T04:55:11.979Z,19.12
2016-11-07T04:56:12.938Z,19.11
2016-11-07T04:57:12.609Z,19.14
2016-11-07T04:58:12.940Z,19.13
2016-11-07T04:59:18.449Z,19.11
2016-11-07T05:00:12.372Z,19.11
2016-11-07T05:01:12.915Z,19.11
2016-11-07T05:02:12.389Z,19.16
2016-11-07T05:03:12.312Z,19.12
2016-11-07T05:04:12.631Z,19.16
2016-11-07T05:05:12.595Z,19.12
2016-11-07T05:06:11.753Z,19.10
2016-11-07T05:07:12.520Z,19.12
2016-11-07T05:08:13.570Z,19.13
2016-11-07T05:09:11.794Z,19.12
2016-11-07T05:10:11.475Z,19.12
2016-11-07T05:11:13.103Z,19.12
2016-11-07T05:12:10.742Z,19.12
2016-11-07T05:13:12.436Z,19.65
2016-11-07T05:14:13.173Z,19.72
2016-11-07T05:15:10.862Z,19.73
2016-11-07T05:16:12.072Z,19.21
2016-11-07T05:17:12.256Z,19.17
2016-11-07T05:18:12.347Z,19.14
2016-11-07T05:19:13.120Z,19.13
2016-11-07T05:20:13.755Z,19.12
2016-11-07T05:21:13.169Z,19.12
2016-11-07T05:22:12.903Z,19.11
2016-11-07T05:23:12.026Z,19.12
2016-11-07T05:24:12.544Z,19.15
2016-11-07T05:25:16.763Z,19.11
2016-11-07T05:26:12.278Z,19.12
2016-11-07T05:27:12.238Z,19.11
2016-11-07T05:28:12.798Z,19.12
2016-11-07T05:29:12.462Z,19.12
2016-11-07T05:30:14.837Z,19.12
2016-11-07T05:31:13.933Z,19.12
2016-11-07T05:32:12.673Z,19.12
2016-11-07T05:33:12.958Z,19.12
2016-11-07T05:34:12.553Z,19.13
2016-11-07T05:35:12.964Z,19.16
2016-11-07T05:36:12.750Z,19.11
2016-11-07T05:37:12.294Z,19.13
2016-11-07T05:38:12.871Z,19.11
2016-11-07T05:39:11.950Z,19.10
2016-11-07T05:40:12.748Z,19.11
2016-11-07T05:41:13.261Z,19.13
2016-11-07T05:42:13.441Z,19.64
2016-11-07T05:43:13.611Z,19.69
2016-11-07T05:44:12.785Z,19.73
2016-11-07T05:45:12.870Z,19.75
2016-11-07T05:46:10.690Z,19.76
2016-11-07T05:47:12.394Z,19.76
2016-11-07T05:48:12.335Z,19.39
2016-11-07T05:49:12.271Z,19.23
2016-11-07T05:50:12.429Z,19.18
2016-11-07T05:51:13.347Z,19.17
2016-11-07T05:52:13.132Z,19.16
2016-11-07T05:53:12.136Z,19.15
2016-11-07T05:54:10.320Z,19.14
2016-11-07T05:55:13.851Z,19.14
2016-11-07T05:56:11.869Z,19.15
2016-11-07T05:57:12.898Z,19.17
2016-11-07T05:58:11.916Z,19.22
2016-11-07T05:59:12.392Z,19.26
2016-11-07T06:00:13.552Z,19.19
2016-11-07T06:01:12.407Z,19.19
2016-11-07T06:02:11.258Z,19.18
2016-11-07T06:03:13.090Z,19.19
2016-11-07T06:04:12.069Z,19.19
2016-11-07T06:05:12.549Z,19.21
2016-11-07T06:06:12.666Z,19.19
2016-11-07T06:07:11.721Z,19.15
2016-11-07T06:08:12.599Z,19.12
2016-11-07T06:09:12.306Z,19.07
